This is the latest recevied weather packets stored in our database for station/object W7PLC. If no packets are shown the sender has not sent any weather packets the latest 10 day(s).
| Time | Temp. | Humidity | Pressure | Rain* | Wind** | Luminosity | Snow |
|---|---|---|---|---|---|---|---|
| 1778032351 | 17.22° C | 74% | 1013.4 hPa | 0 mm | - | 20 W/m² | - |
| 1778032047 | 17.78° C | 73% | 1013.3 hPa | 0 mm | - | 22 W/m² | - |
| 1778031743 | 17.78° C | 74% | 1013.2 hPa | 0 mm | - | 22 W/m² | - |
| 1778031441 | 17.78° C | 73% | 1013.3 hPa | 0 mm | - | 23 W/m² | - |
| 1778031138 | 18.33° C | 72% | 1013.3 hPa | 0 mm | - | 26 W/m² | - |
| 1778030834 | 18.33° C | 72% | 1013.3 hPa | 0 mm | - | 26 W/m² | - |
| 1778030531 | 18.33° C | 72% | 1013.3 hPa | 0 mm | - | 27 W/m² | - |
| 1778030228 | 18.33° C | 72% | 1013.3 hPa | 0 mm | - | 28 W/m² | - |
| 1778029925 | 18.89° C | 71% | 1013.2 hPa | 0 mm | - | 28 W/m² | - |
| 1778029623 | 18.89° C | 71% | 1013.3 hPa | 0 mm | - | 30 W/m² | - |
| 1778029320 | 19.44° C | 69% | 1013.1 hPa | 0 mm | - | 32 W/m² | - |
| 1778029017 | 20° C | 68% | 1013.2 hPa | 0 mm | - | 33 W/m² | - |
| 1778028714 | 20.56° C | 67% | 1013.3 hPa | 0 mm | - | 36 W/m² | - |
| 1778028410 | 20° C | 66% | 1013.3 hPa | 0 mm | - | 105 W/m² | - |
| 1778028107 | 20.56° C | 66% | 1013.3 hPa | 0 mm | - | 215 W/m² | - |
| 1778027803 | 20.56° C | 65% | 1013.4 hPa | 0 mm | - | 240 W/m² | - |
| 1778027500 | 20.56° C | 66% | 1013.3 hPa | 0 mm | - | 272 W/m² | - |
| 1778027196 | 20.56° C | 65% | 1013.5 hPa | 0 mm | - | 288 W/m² | - |
| 1778026892 | 20.56° C | 65% | 1013.4 hPa | 0 mm | - | 281 W/m² | - |
| 1778026588 | 20° C | 66% | 1013.4 hPa | 0 mm | - | 289 W/m² | - |
| 1778026285 | 20.56° C | 66% | 1013.7 hPa | 0 mm | - | 311 W/m² | - |
| 1778025983 | 20° C | 68% | 1013.5 hPa | 0 mm | - | 378 W/m² | - |
| 1778025680 | 20° C | 66% | 1013.5 hPa | 0 mm | - | 340 W/m² | - |
| 1778025378 | 20° C | 66% | 1013.7 hPa | 0 mm | - | 400 W/m² | - |
| 1778025075 | 19.44° C | 69% | 1013.7 hPa | 0 mm | - | 428 W/m² | - |
* Rain latest hour (hover to see other rain measurements)
** Current wind speed in m/s (hover to see current wind gust speed)